PWSweather.com
Personal Weather Stations
Station Observations
SELKIRK1
Ontario, Selkirk, ON N0A 1P0

OntarioSelkirk, ON N0A 1P0

Lat: 42.8083652, Lon: -79.94971040000001

Elevation: 583

Station Type: Acurite 5 in 1

http://gavinsurf.com

High Low Average
Temperature 64.4°F18.0°C 41.2°F5.1°C 52.6°F11.4°C
Dew Point 53.3°F11.8°C 37.0°F2.8°C 46.6°F8.1°C
Winds 13.8 mph 22.2 kmh Calm Calm 4.0 mph S6.4 kmh S
Wind Gusts 16.1 mph25.9 kmh -- 5.0 mph8.0 kmh
Humidity 98% 60% 81%
Pressure 31.80 in1076.9 mb 31.80 in1076.9 mb -
Precipitation 0.00 in0.0 mm - -
Hour Temp Dew Point Humidity Winds Wind Gusts Pressure Precip Precip Rate Daily Precip Total
12:00 AM 43.7°F6.5°C 37.9°F3.3°C 80% 3.5 mph N5.6 kmh N 4.6 mph7.4 kmh 31.80 in1076.9 mb - 0.00 in0.0 mm 0.00 in0.0 mm
12:10 AM 44.1°F6.7°C 37.7°F3.2°C 78% 3.5 mph N5.6 kmh N 3.5 mph5.6 kmh 31.80 in1076.9 mb - 0.00 in0.0 mm 0.00 in0.0 mm
12:15 AM 44.1°F6.7°C 37.7°F3.2°C 78% 3.5 mph NNW5.6 kmh NNW 3.5 mph5.6 kmh 31.80 in1076.9 mb - 0.00 in0.0 mm 0.00 in0.0 mm
12:20 AM 44.1°F6.7°C 37.7°F3.2°C 78% 2.3 mph NE3.7 kmh NE 2.3 mph3.7 kmh 31.80 in1076.9 mb - 0.00 in0.0 mm 0.00 in0.0 mm
12:25 AM 43.9°F6.6°C 37.8°F3.2°C 79% 3.5 mph NNE5.6 kmh NNE 3.5 mph5.6 kmh 31.80 in1076.9 mb - 0.00 in0.0 mm 0.00 in0.0 mm
12:30 AM 43.5°F6.4°C 37.8°F3.2°C 80% 3.5 mph N5.6 kmh N 4.6 mph7.4 kmh 31.80 in1076.9 mb - 0.00 in0.0 mm 0.00 in0.0 mm
12:35 AM 43.4°F6.3°C 37.6°F3.1°C 80% 4.6 mph N7.4 kmh N 5.8 mph9.3 kmh 31.80 in1076.9 mb - 0.00 in0.0 mm 0.00 in0.0 mm
12:40 AM 43.4°F6.3°C 37.3°F2.9°C 79% 4.6 mph N7.4 kmh N 4.6 mph7.4 kmh 31.80 in1076.9 mb - 0.00 in0.0 mm 0.00 in0.0 mm
12:45 AM 43.5°F6.4°C 38.0°F3.3°C 81% 4.6 mph N7.4 kmh N 4.6 mph7.4 kmh 31.80 in1076.9 mb - 0.00 in0.0 mm 0.00 in0.0 mm
12:50 AM 43.0°F6.1°C 37.9°F3.3°C 82% 4.6 mph N7.4 kmh N 4.6 mph7.4 kmh 31.80 in1076.9 mb - 0.00 in0.0 mm 0.00 in0.0 mm
12:55 AM 42.8°F6.0°C 37.7°F3.2°C 82% 3.5 mph N5.6 kmh N 4.6 mph7.4 kmh 31.80 in1076.9 mb - 0.00 in0.0 mm 0.00 in0.0 mm
01:00 AM 42.6°F5.9°C 37.8°F3.2°C 83% 3.5 mph N5.6 kmh N 4.6 mph7.4 kmh 31.80 in1076.9 mb - 0.00 in0.0 mm 0.00 in0.0 mm
01:10 AM 42.6°F5.9°C 37.8°F3.2°C 83% 4.6 mph N7.4 kmh N 4.6 mph7.4 kmh 31.80 in1076.9 mb - 0.00 in0.0 mm 0.00 in0.0 mm
01:15 AM 42.5°F5.8°C 38.0°F3.3°C 84% 3.5 mph N5.6 kmh N 4.6 mph7.4 kmh 31.80 in1076.9 mb - 0.00 in0.0 mm 0.00 in0.0 mm
01:20 AM 42.5°F5.8°C 38.0°F3.3°C 84% 3.5 mph N5.6 kmh N 3.5 mph5.6 kmh 31.80 in1076.9 mb - 0.00 in0.0 mm 0.00 in0.0 mm
01:25 AM 42.5°F5.8°C 37.7°F3.2°C 83% 3.5 mph N5.6 kmh N 4.6 mph7.4 kmh 31.80 in1076.9 mb - 0.00 in0.0 mm 0.00 in0.0 mm
01:30 AM 42.5°F5.8°C 37.7°F3.2°C 83% 3.5 mph N5.6 kmh N 3.5 mph5.6 kmh 31.80 in1076.9 mb - 0.00 in0.0 mm 0.00 in0.0 mm
01:35 AM 42.5°F5.8°C 37.7°F3.2°C 83% 3.5 mph N5.6 kmh N 3.5 mph5.6 kmh 31.80 in1076.9 mb - 0.00 in0.0 mm 0.00 in0.0 mm
01:40 AM 42.5°F5.8°C 37.7°F3.2°C 83% 3.5 mph N5.6 kmh N 3.5 mph5.6 kmh 31.80 in1076.9 mb - 0.00 in0.0 mm 0.00 in0.0 mm
01:45 AM 42.5°F5.8°C 37.7°F3.2°C 83% 3.5 mph NNE5.6 kmh NNE 3.5 mph5.6 kmh 31.80 in1076.9 mb - 0.00 in0.0 mm 0.00 in0.0 mm
01:50 AM 42.5°F5.8°C 37.7°F3.2°C 83% 3.5 mph N5.6 kmh N 3.5 mph5.6 kmh 31.80 in1076.9 mb - 0.00 in0.0 mm 0.00 in0.0 mm
01:55 AM 42.3°F5.7°C 37.8°F3.2°C 84% 3.5 mph NNE5.6 kmh NNE 3.5 mph5.6 kmh 31.80 in1076.9 mb - 0.00 in0.0 mm 0.00 in0.0 mm
02:00 AM 42.3°F5.7°C 37.8°F3.2°C 84% 2.3 mph NE3.7 kmh NE 2.3 mph3.7 kmh 31.80 in1076.9 mb - 0.00 in0.0 mm 0.00 in0.0 mm
02:10 AM 42.1°F5.6°C 37.6°F3.1°C 84% Calm Calm -- 31.80 in1076.9 mb - 0.00 in0.0 mm 0.00 in0.0 mm
02:15 AM 41.9°F5.5°C 37.1°F2.8°C 83% Calm Calm -- 31.80 in1076.9 mb - 0.00 in0.0 mm 0.00 in0.0 mm
02:20 AM 41.7°F5.4°C 37.5°F3.1°C 85% Calm Calm -- 31.80 in1076.9 mb - 0.00 in0.0 mm 0.00 in0.0 mm
02:25 AM 41.5°F5.3°C 37.3°F2.9°C 85% Calm Calm -- 31.80 in1076.9 mb - 0.00 in0.0 mm 0.00 in0.0 mm
02:30 AM 41.4°F5.2°C 37.2°F2.9°C 85% Calm Calm -- 31.80 in1076.9 mb - 0.00 in0.0 mm 0.00 in0.0 mm
02:35 AM 41.2°F5.1°C 37.0°F2.8°C 85% Calm Calm -- 31.80 in1076.9 mb - 0.00 in0.0 mm 0.00 in0.0 mm
02:40 AM 41.2°F5.1°C 37.9°F3.3°C 88% Calm Calm -- 31.80 in1076.9 mb - 0.00 in0.0 mm 0.00 in0.0 mm
02:45 AM 41.4°F5.2°C 38.7°F3.7°C 90% Calm Calm -- 31.80 in1076.9 mb - 0.00 in0.0 mm 0.00 in0.0 mm
02:50 AM 41.6°F5.3°C 39.4°F4.1°C 92% 1.2 mph NNE1.9 kmh NNE 1.2 mph1.9 kmh 31.80 in1076.9 mb - 0.00 in0.0 mm 0.00 in0.0 mm
02:55 AM 41.9°F5.5°C 40.6°F4.8°C 95% 2.3 mph NNE3.7 kmh NNE 2.3 mph3.7 kmh 31.80 in1076.9 mb - 0.00 in0.0 mm 0.00 in0.0 mm
03:00 AM 41.9°F5.5°C 40.8°F4.9°C 96% 2.3 mph NNE3.7 kmh NNE 2.3 mph3.7 kmh 31.80 in1076.9 mb - 0.00 in0.0 mm 0.00 in0.0 mm
03:10 AM 41.9°F5.5°C 40.8°F4.9°C 96% Calm Calm -- 31.80 in1076.9 mb - 0.00 in0.0 mm 0.00 in0.0 mm
03:15 AM 41.9°F5.5°C 40.6°F4.8°C 95% Calm Calm -- 31.80 in1076.9 mb - 0.00 in0.0 mm 0.00 in0.0 mm
03:20 AM 41.9°F5.5°C 40.3°F4.6°C 94% 1.2 mph N1.9 kmh N 2.3 mph3.7 kmh 31.80 in1076.9 mb - 0.00 in0.0 mm 0.00 in0.0 mm
03:25 AM 41.9°F5.5°C 40.0°F4.4°C 93% 2.3 mph N3.7 kmh N 2.3 mph3.7 kmh 31.80 in1076.9 mb - 0.00 in0.0 mm 0.00 in0.0 mm
03:30 AM 42.3°F5.7°C 40.1°F4.5°C 92% 2.3 mph N3.7 kmh N 2.3 mph3.7 kmh 31.80 in1076.9 mb - 0.00 in0.0 mm 0.00 in0.0 mm
03:35 AM 42.6°F5.9°C 40.7°F4.8°C 93% 3.5 mph N5.6 kmh N 3.5 mph5.6 kmh 31.80 in1076.9 mb - 0.00 in0.0 mm 0.00 in0.0 mm
03:40 AM 42.8°F6.0°C 41.2°F5.1°C 94% 2.3 mph N3.7 kmh N 3.5 mph5.6 kmh 31.80 in1076.9 mb - 0.00 in0.0 mm 0.00 in0.0 mm
03:45 AM 42.8°F6.0°C 41.4°F5.2°C 95% 2.3 mph N3.7 kmh N 2.3 mph3.7 kmh 31.80 in1076.9 mb - 0.00 in0.0 mm 0.00 in0.0 mm
03:50 AM 42.8°F6.0°C 41.2°F5.1°C 94% 2.3 mph NNW3.7 kmh NNW 2.3 mph3.7 kmh 31.80 in1076.9 mb - 0.00 in0.0 mm 0.00 in0.0 mm
03:55 AM 43.0°F6.1°C 41.9°F5.5°C 96% 3.5 mph N5.6 kmh N 3.5 mph5.6 kmh 31.80 in1076.9 mb - 0.00 in0.0 mm 0.00 in0.0 mm
04:00 AM 43.0°F6.1°C 41.4°F5.2°C 94% 3.5 mph N5.6 kmh N 3.5 mph5.6 kmh 31.80 in1076.9 mb - 0.00 in0.0 mm 0.00 in0.0 mm
04:15 AM 43.5°F6.4°C 41.9°F5.5°C 94% 3.5 mph NW5.6 kmh NW 4.6 mph7.4 kmh 31.80 in1076.9 mb - 0.00 in0.0 mm 0.00 in0.0 mm
04:20 AM 44.1°F6.7°C 42.2°F5.7°C 93% 2.3 mph NNE3.7 kmh NNE 3.5 mph5.6 kmh 31.80 in1076.9 mb - 0.00 in0.0 mm 0.00 in0.0 mm
04:25 AM 45.3°F7.4°C 41.3°F5.2°C 86% 4.6 mph S7.4 kmh S 5.8 mph9.3 kmh 31.80 in1076.9 mb - 0.00 in0.0 mm 0.00 in0.0 mm
04:30 AM 46.4°F8.0°C 42.4°F5.8°C 86% 8.1 mph SSE13.0 kmh SSE 16.1 mph25.9 kmh 31.80 in1076.9 mb - 0.00 in0.0 mm 0.00 in0.0 mm
04:35 AM 49.1°F9.5°C 47.4°F8.6°C 94% 4.6 mph NNW7.4 kmh NNW 4.6 mph7.4 kmh 31.80 in1076.9 mb - 0.00 in0.0 mm 0.00 in0.0 mm
04:40 AM 47.8°F8.8°C 43.5°F6.4°C 85% 4.6 mph N7.4 kmh N 5.8 mph9.3 kmh 31.80 in1076.9 mb - 0.00 in0.0 mm 0.00 in0.0 mm
04:45 AM 47.1°F8.4°C 41.6°F5.3°C 81% 4.6 mph N7.4 kmh N 5.8 mph9.3 kmh 31.80 in1076.9 mb - 0.00 in0.0 mm 0.00 in0.0 mm
04:50 AM 47.0°F8.3°C 41.2°F5.1°C 80% 3.5 mph NNE5.6 kmh NNE 4.6 mph7.4 kmh 31.80 in1076.9 mb - 0.00 in0.0 mm 0.00 in0.0 mm
04:55 AM 47.0°F8.3°C 41.1°F5.1°C 80% 3.5 mph N5.6 kmh N 4.6 mph7.4 kmh 31.80 in1076.9 mb - 0.00 in0.0 mm 0.00 in0.0 mm
05:00 AM 46.8°F8.2°C 41.6°F5.3°C 82% 2.3 mph N3.7 kmh N 3.5 mph5.6 kmh 31.80 in1076.9 mb - 0.00 in0.0 mm 0.00 in0.0 mm
05:10 AM 46.4°F8.0°C 41.5°F5.3°C 83% 3.5 mph NNE5.6 kmh NNE 3.5 mph5.6 kmh 31.80 in1076.9 mb - 0.00 in0.0 mm 0.00 in0.0 mm
05:15 AM 46.4°F8.0°C 41.5°F5.3°C 83% 3.5 mph N5.6 kmh N 4.6 mph7.4 kmh 31.80 in1076.9 mb - 0.00 in0.0 mm 0.00 in0.0 mm
05:20 AM 46.4°F8.0°C 41.5°F5.3°C 83% 2.3 mph NNE3.7 kmh NNE 1.2 mph1.9 kmh 31.80 in1076.9 mb - 0.00 in0.0 mm 0.00 in0.0 mm
05:25 AM 46.2°F7.9°C 41.6°F5.3°C 84% 2.3 mph NNE3.7 kmh NNE 2.3 mph3.7 kmh 31.80 in1076.9 mb - 0.00 in0.0 mm 0.00 in0.0 mm
05:30 AM 46.2°F7.9°C 41.3°F5.2°C 83% 3.5 mph N5.6 kmh N 3.5 mph5.6 kmh 31.80 in1076.9 mb - 0.00 in0.0 mm 0.00 in0.0 mm
05:35 AM 46.2°F7.9°C 41.6°F5.3°C 84% 1.2 mph NNE1.9 kmh NNE 2.3 mph3.7 kmh 31.80 in1076.9 mb - 0.00 in0.0 mm 0.00 in0.0 mm
05:40 AM 46.2°F7.9°C 41.9°F5.5°C 85% 2.3 mph NNE3.7 kmh NNE 2.3 mph3.7 kmh 31.80 in1076.9 mb - 0.00 in0.0 mm 0.00 in0.0 mm
05:45 AM 46.2°F7.9°C 41.6°F5.3°C 84% 2.3 mph NNE3.7 kmh NNE 3.5 mph5.6 kmh 31.80 in1076.9 mb - 0.00 in0.0 mm 0.00 in0.0 mm
05:50 AM 46.2°F7.9°C 41.6°F5.3°C 84% 2.3 mph NE3.7 kmh NE 2.3 mph3.7 kmh 31.80 in1076.9 mb - 0.00 in0.0 mm 0.00 in0.0 mm
05:55 AM 46.2°F7.9°C 41.6°F5.3°C 84% 3.5 mph N5.6 kmh N 4.6 mph7.4 kmh 31.80 in1076.9 mb - 0.00 in0.0 mm 0.00 in0.0 mm
06:00 AM 46.2°F7.9°C 41.6°F5.3°C 84% 2.3 mph NE3.7 kmh NE 2.3 mph3.7 kmh 31.80 in1076.9 mb - 0.00 in0.0 mm 0.00 in0.0 mm
06:10 AM 46.6°F8.1°C 42.0°F5.6°C 84% 2.3 mph NNE3.7 kmh NNE 2.3 mph3.7 kmh 31.80 in1076.9 mb - 0.00 in0.0 mm 0.00 in0.0 mm
06:15 AM 46.6°F8.1°C 42.6°F5.9°C 86% 3.5 mph NNW5.6 kmh NNW 3.5 mph5.6 kmh 31.80 in1076.9 mb - 0.00 in0.0 mm 0.00 in0.0 mm
06:20 AM 46.6°F8.1°C 42.6°F5.9°C 86% 3.5 mph N5.6 kmh N 3.5 mph5.6 kmh 31.80 in1076.9 mb - 0.00 in0.0 mm 0.00 in0.0 mm
06:25 AM 46.6°F8.1°C 42.9°F6.1°C 87% 3.5 mph N5.6 kmh N 3.5 mph5.6 kmh 31.80 in1076.9 mb - 0.00 in0.0 mm 0.00 in0.0 mm
06:30 AM 46.6°F8.1°C 42.6°F5.9°C 86% 3.5 mph N5.6 kmh N 3.5 mph5.6 kmh 31.80 in1076.9 mb - 0.00 in0.0 mm 0.00 in0.0 mm
06:35 AM 46.6°F8.1°C 42.0°F5.6°C 84% 3.5 mph N5.6 kmh N 3.5 mph5.6 kmh 31.80 in1076.9 mb - 0.00 in0.0 mm 0.00 in0.0 mm
06:40 AM 46.6°F8.1°C 42.6°F5.9°C 86% 3.5 mph N5.6 kmh N 3.5 mph5.6 kmh 31.80 in1076.9 mb - 0.00 in0.0 mm 0.00 in0.0 mm
06:45 AM 46.6°F8.1°C 42.9°F6.1°C 87% 2.3 mph NNE3.7 kmh NNE 3.5 mph5.6 kmh 31.80 in1076.9 mb - 0.00 in0.0 mm 0.00 in0.0 mm
06:50 AM 46.6°F8.1°C 42.6°F5.9°C 86% 3.5 mph N5.6 kmh N 3.5 mph5.6 kmh 31.80 in1076.9 mb - 0.00 in0.0 mm 0.00 in0.0 mm
06:55 AM 46.6°F8.1°C 42.9°F6.1°C 87% 3.5 mph N5.6 kmh N 3.5 mph5.6 kmh 31.80 in1076.9 mb - 0.00 in0.0 mm 0.00 in0.0 mm
07:00 AM 46.6°F8.1°C 43.2°F6.2°C 88% 2.3 mph NNE3.7 kmh NNE 2.3 mph3.7 kmh 31.80 in1076.9 mb - 0.00 in0.0 mm 0.00 in0.0 mm
07:10 AM 46.6°F8.1°C 43.2°F6.2°C 88% 2.3 mph N3.7 kmh N 2.3 mph3.7 kmh 31.80 in1076.9 mb - 0.00 in0.0 mm 0.00 in0.0 mm
07:15 AM 46.6°F8.1°C 43.2°F6.2°C 88% 2.3 mph N3.7 kmh N 2.3 mph3.7 kmh 31.80 in1076.9 mb - 0.00 in0.0 mm 0.00 in0.0 mm
07:20 AM 46.6°F8.1°C 43.5°F6.4°C 89% Calm Calm 1.2 mph1.9 kmh 31.80 in1076.9 mb - 0.00 in0.0 mm 0.00 in0.0 mm
07:25 AM 46.6°F8.1°C 43.5°F6.4°C 89% 2.3 mph NW3.7 kmh NW 2.3 mph3.7 kmh 31.80 in1076.9 mb - 0.00 in0.0 mm 0.00 in0.0 mm
07:30 AM 46.6°F8.1°C 43.8°F6.6°C 90% 2.3 mph NNE3.7 kmh NNE 2.3 mph3.7 kmh 31.80 in1076.9 mb - 0.00 in0.0 mm 0.00 in0.0 mm
07:35 AM 46.6°F8.1°C 43.8°F6.6°C 90% 2.3 mph NNW3.7 kmh NNW 3.5 mph5.6 kmh 31.80 in1076.9 mb - 0.00 in0.0 mm 0.00 in0.0 mm
07:40 AM 46.6°F8.1°C 43.5°F6.4°C 89% 2.3 mph NNW3.7 kmh NNW 2.3 mph3.7 kmh 31.80 in1076.9 mb - 0.00 in0.0 mm 0.00 in0.0 mm
07:45 AM 46.6°F8.1°C 42.9°F6.1°C 87% 2.3 mph N3.7 kmh N 3.5 mph5.6 kmh 31.80 in1076.9 mb - 0.00 in0.0 mm 0.00 in0.0 mm
07:50 AM 46.6°F8.1°C 42.9°F6.1°C 87% Calm Calm -- 31.80 in1076.9 mb - 0.00 in0.0 mm 0.00 in0.0 mm
07:55 AM 46.6°F8.1°C 43.2°F6.2°C 88% 2.3 mph N3.7 kmh N 2.3 mph3.7 kmh 31.80 in1076.9 mb - 0.00 in0.0 mm 0.00 in0.0 mm
08:00 AM 46.6°F8.1°C 43.5°F6.4°C 89% 2.3 mph N3.7 kmh N 2.3 mph3.7 kmh 31.80 in1076.9 mb - 0.00 in0.0 mm 0.00 in0.0 mm
08:10 AM 46.8°F8.2°C 44.3°F6.8°C 91% Calm Calm -- 31.80 in1076.9 mb - 0.00 in0.0 mm 0.00 in0.0 mm
08:15 AM 46.8°F8.2°C 44.6°F7.0°C 92% 2.3 mph NNE3.7 kmh NNE 2.3 mph3.7 kmh 31.80 in1076.9 mb - 0.00 in0.0 mm 0.00 in0.0 mm
08:20 AM 46.8°F8.2°C 44.9°F7.2°C 93% Calm Calm -- 31.80 in1076.9 mb - 0.00 in0.0 mm 0.00 in0.0 mm
08:25 AM 46.8°F8.2°C 44.6°F7.0°C 92% Calm Calm -- 31.80 in1076.9 mb - 0.00 in0.0 mm 0.00 in0.0 mm
08:30 AM 46.8°F8.2°C 44.6°F7.0°C 92% 1.2 mph NE1.9 kmh NE 1.2 mph1.9 kmh 31.80 in1076.9 mb - 0.00 in0.0 mm 0.00 in0.0 mm
08:35 AM 46.8°F8.2°C 44.9°F7.2°C 93% 2.3 mph N3.7 kmh N 2.3 mph3.7 kmh 31.80 in1076.9 mb - 0.00 in0.0 mm 0.00 in0.0 mm
08:40 AM 46.8°F8.2°C 44.9°F7.2°C 93% 2.3 mph NNE3.7 kmh NNE 2.3 mph3.7 kmh 31.80 in1076.9 mb - 0.00 in0.0 mm 0.00 in0.0 mm
08:45 AM 46.8°F8.2°C 44.6°F7.0°C 92% 1.2 mph N1.9 kmh N 1.2 mph1.9 kmh 31.80 in1076.9 mb - 0.00 in0.0 mm 0.00 in0.0 mm
08:50 AM 47.0°F8.3°C 44.8°F7.1°C 92% 2.3 mph N3.7 kmh N 2.3 mph3.7 kmh 31.80 in1076.9 mb - 0.00 in0.0 mm 0.00 in0.0 mm
08:55 AM 47.0°F8.3°C 44.8°F7.1°C 92% 1.2 mph NNE1.9 kmh NNE 2.3 mph3.7 kmh 31.80 in1076.9 mb - 0.00 in0.0 mm 0.00 in0.0 mm
09:00 AM 47.0°F8.3°C 44.8°F7.1°C 92% 1.2 mph N1.9 kmh N 1.2 mph1.9 kmh 31.80 in1076.9 mb - 0.00 in0.0 mm 0.00 in0.0 mm
09:10 AM 47.1°F8.4°C 44.6°F7.0°C 91% Calm Calm -- 31.80 in1076.9 mb - 0.00 in0.0 mm 0.00 in0.0 mm
09:15 AM 47.3°F8.5°C 44.5°F6.9°C 90% Calm Calm -- 31.80 in1076.9 mb - 0.00 in0.0 mm 0.00 in0.0 mm
09:20 AM 47.3°F8.5°C 43.3°F6.3°C 86% Calm Calm -- 31.80 in1076.9 mb - 0.00 in0.0 mm 0.00 in0.0 mm
09:25 AM 47.3°F8.5°C 41.7°F5.4°C 81% Calm Calm -- 31.80 in1076.9 mb - 0.00 in0.0 mm 0.00 in0.0 mm
09:30 AM 47.7°F8.7°C 45.0°F7.2°C 90% Calm Calm 1.2 mph1.9 kmh 31.80 in1076.9 mb - 0.00 in0.0 mm 0.00 in0.0 mm
09:35 AM 47.9°F8.8°C 45.7°F7.6°C 92% 2.3 mph N3.7 kmh N 2.3 mph3.7 kmh 31.80 in1076.9 mb - 0.00 in0.0 mm 0.00 in0.0 mm
09:40 AM 48.0°F8.9°C 46.3°F7.9°C 94% 2.3 mph N3.7 kmh N 2.3 mph3.7 kmh 31.80 in1076.9 mb - 0.00 in0.0 mm 0.00 in0.0 mm
09:45 AM 48.0°F8.9°C 46.3°F7.9°C 94% Calm Calm -- 31.80 in1076.9 mb - 0.00 in0.0 mm 0.00 in0.0 mm
09:50 AM 48.0°F8.9°C 46.3°F7.9°C 94% Calm Calm 2.3 mph3.7 kmh 31.80 in1076.9 mb - 0.00 in0.0 mm 0.00 in0.0 mm
09:55 AM 48.2°F9.0°C 46.5°F8.1°C 94% 2.3 mph N3.7 kmh N 2.3 mph3.7 kmh 31.80 in1076.9 mb - 0.00 in0.0 mm 0.00 in0.0 mm
10:00 AM 48.3°F9.1°C 46.7°F8.2°C 94% 1.2 mph NW1.9 kmh NW 2.3 mph3.7 kmh 31.80 in1076.9 mb - 0.00 in0.0 mm 0.00 in0.0 mm
10:10 AM 48.6°F9.2°C 46.1°F7.8°C 91% 2.3 mph NNW3.7 kmh NNW 2.3 mph3.7 kmh 31.80 in1076.9 mb - 0.00 in0.0 mm 0.00 in0.0 mm
10:15 AM 48.6°F9.2°C 46.1°F7.8°C 91% Calm Calm -- 31.80 in1076.9 mb - 0.00 in0.0 mm 0.00 in0.0 mm
10:20 AM 48.8°F9.3°C 46.6°F8.1°C 92% 1.2 mph NNE1.9 kmh NNE 1.2 mph1.9 kmh 31.80 in1076.9 mb - 0.00 in0.0 mm 0.00 in0.0 mm
10:25 AM 48.9°F9.4°C 46.7°F8.2°C 92% 1.2 mph NNE1.9 kmh NNE 1.2 mph1.9 kmh 31.80 in1076.9 mb - 0.00 in0.0 mm 0.00 in0.0 mm
10:30 AM 49.3°F9.6°C 47.1°F8.4°C 92% 2.3 mph NE3.7 kmh NE 2.3 mph3.7 kmh 31.80 in1076.9 mb - 0.00 in0.0 mm 0.00 in0.0 mm
10:35 AM 49.4°F9.7°C 45.7°F7.6°C 87% Calm Calm 2.3 mph3.7 kmh 31.80 in1076.9 mb - 0.00 in0.0 mm 0.00 in0.0 mm
10:40 AM 49.9°F9.9°C 46.2°F7.9°C 87% Calm Calm -- 31.80 in1076.9 mb - 0.00 in0.0 mm 0.00 in0.0 mm
10:45 AM 51.7°F10.9°C 47.7°F8.7°C 86% 5.8 mph NNE9.3 kmh NNE 5.8 mph9.3 kmh 31.80 in1076.9 mb - 0.00 in0.0 mm 0.00 in0.0 mm
10:50 AM 52.0°F11.1°C 46.3°F7.9°C 81% 2.3 mph W3.7 kmh W 2.3 mph3.7 kmh 31.80 in1076.9 mb - 0.00 in0.0 mm 0.00 in0.0 mm
10:55 AM 52.2°F11.2°C 46.9°F8.3°C 82% 3.5 mph NW5.6 kmh NW 5.8 mph9.3 kmh 31.80 in1076.9 mb - 0.00 in0.0 mm 0.00 in0.0 mm
11:00 AM 52.4°F11.3°C 46.4°F8.0°C 80% 3.5 mph NE5.6 kmh NE 3.5 mph5.6 kmh 31.80 in1076.9 mb - 0.00 in0.0 mm 0.00 in0.0 mm
11:10 AM 53.3°F11.8°C 46.6°F8.1°C 78% 2.3 mph N3.7 kmh N 2.3 mph3.7 kmh 31.80 in1076.9 mb - 0.00 in0.0 mm 0.00 in0.0 mm
11:15 AM 55.8°F13.2°C 46.9°F8.3°C 72% 2.3 mph NW3.7 kmh NW 3.5 mph5.6 kmh 31.80 in1076.9 mb - 0.00 in0.0 mm 0.00 in0.0 mm
11:20 AM 58.7°F14.8°C 50.8°F10.4°C 75% 8.1 mph SSW13.0 kmh SSW 9.2 mph14.8 kmh 31.80 in1076.9 mb - 0.00 in0.0 mm 0.00 in0.0 mm
11:25 AM 59.2°F15.1°C 50.5°F10.3°C 73% 5.8 mph SW9.3 kmh SW 8.1 mph13.0 kmh 31.80 in1076.9 mb - 0.00 in0.0 mm 0.00 in0.0 mm
11:30 AM 60.1°F15.6°C 52.8°F11.6°C 77% 9.2 mph SW14.8 kmh SW 11.5 mph18.5 kmh 31.80 in1076.9 mb - 0.00 in0.0 mm 0.00 in0.0 mm
11:35 AM 59.8°F15.4°C 52.9°F11.6°C 78% 9.2 mph SW14.8 kmh SW 11.5 mph18.5 kmh 31.80 in1076.9 mb - 0.00 in0.0 mm 0.00 in0.0 mm
11:40 AM 59.0°F15.0°C 52.8°F11.6°C 80% 9.2 mph SW14.8 kmh SW 10.4 mph16.7 kmh 31.80 in1076.9 mb - 0.00 in0.0 mm 0.00 in0.0 mm
11:45 AM 59.0°F15.0°C 51.8°F11.0°C 77% 9.2 mph SW14.8 kmh SW 10.4 mph16.7 kmh 31.80 in1076.9 mb - 0.00 in0.0 mm 0.00 in0.0 mm
11:50 AM 58.7°F14.8°C 52.6°F11.4°C 80% 10.4 mph S16.7 kmh S 11.5 mph18.5 kmh 31.80 in1076.9 mb - 0.00 in0.0 mm 0.00 in0.0 mm
11:55 AM 58.7°F14.8°C 52.2°F11.2°C 79% 10.4 mph SW16.7 kmh SW 12.7 mph20.4 kmh 31.80 in1076.9 mb - 0.00 in0.0 mm 0.00 in0.0 mm
12:00 PM 59.0°F15.0°C 52.5°F11.4°C 79% 9.2 mph SSW14.8 kmh SSW 10.4 mph16.7 kmh 31.80 in1076.9 mb - 0.00 in0.0 mm 0.00 in0.0 mm
12:10 PM 58.3°F14.6°C 52.2°F11.2°C 80% 9.2 mph SW14.8 kmh SW 10.4 mph16.7 kmh 31.80 in1076.9 mb - 0.00 in0.0 mm 0.00 in0.0 mm
12:15 PM 58.8°F14.9°C 51.9°F11.1°C 78% 10.4 mph SSW16.7 kmh SSW 12.7 mph20.4 kmh 31.80 in1076.9 mb - 0.00 in0.0 mm 0.00 in0.0 mm
12:20 PM 59.0°F15.0°C 52.1°F11.2°C 78% 9.2 mph WSW14.8 kmh WSW 10.4 mph16.7 kmh 31.80 in1076.9 mb - 0.00 in0.0 mm 0.00 in0.0 mm
12:25 PM 58.8°F14.9°C 52.3°F11.3°C 79% 9.2 mph SW14.8 kmh SW 10.4 mph16.7 kmh 31.80 in1076.9 mb - 0.00 in0.0 mm 0.00 in0.0 mm
12:30 PM 58.1°F14.5°C 50.6°F10.3°C 76% 10.4 mph SW16.7 kmh SW 11.5 mph18.5 kmh 31.80 in1076.9 mb - 0.00 in0.0 mm 0.00 in0.0 mm
12:35 PM 58.5°F14.7°C 50.9°F10.5°C 76% 9.2 mph SW14.8 kmh SW 10.4 mph16.7 kmh 31.80 in1076.9 mb - 0.00 in0.0 mm 0.00 in0.0 mm
12:40 PM 60.0°F15.6°C 51.7°F10.9°C 74% 6.9 mph SW11.1 kmh SW 10.4 mph16.7 kmh 31.80 in1076.9 mb - 0.00 in0.0 mm 0.00 in0.0 mm
12:45 PM 60.3°F15.7°C 51.2°F10.7°C 72% 9.2 mph SW14.8 kmh SW 11.5 mph18.5 kmh 31.80 in1076.9 mb - 0.00 in0.0 mm 0.00 in0.0 mm
12:50 PM 59.9°F15.5°C 51.2°F10.7°C 73% 5.8 mph WSW9.3 kmh WSW 6.9 mph11.1 kmh 31.80 in1076.9 mb - 0.00 in0.0 mm 0.00 in0.0 mm
12:55 PM 59.6°F15.3°C 49.8°F9.9°C 70% 9.2 mph SW14.8 kmh SW 9.2 mph14.8 kmh 31.80 in1076.9 mb - 0.00 in0.0 mm 0.00 in0.0 mm
01:00 PM 59.5°F15.3°C 50.1°F10.1°C 71% 6.9 mph SW11.1 kmh SW 9.2 mph14.8 kmh 31.80 in1076.9 mb - 0.00 in0.0 mm 0.00 in0.0 mm
01:10 PM 61.1°F16.2°C 51.6°F10.9°C 71% 8.1 mph SW13.0 kmh SW 10.4 mph16.7 kmh 31.80 in1076.9 mb - 0.00 in0.0 mm 0.00 in0.0 mm
01:15 PM 61.4°F16.3°C 50.7°F10.4°C 68% 6.9 mph S11.1 kmh S 9.2 mph14.8 kmh 31.80 in1076.9 mb - 0.00 in0.0 mm 0.00 in0.0 mm
01:20 PM 61.7°F16.5°C 50.6°F10.3°C 67% 5.8 mph SW9.3 kmh SW 5.8 mph9.3 kmh 31.80 in1076.9 mb - 0.00 in0.0 mm 0.00 in0.0 mm
01:25 PM 62.2°F16.8°C 51.1°F10.6°C 67% 4.6 mph WSW7.4 kmh WSW 5.8 mph9.3 kmh 31.80 in1076.9 mb - 0.00 in0.0 mm 0.00 in0.0 mm
01:30 PM 63.1°F17.3°C 51.2°F10.7°C 65% 5.8 mph SW9.3 kmh SW 6.9 mph11.1 kmh 31.80 in1076.9 mb - 0.00 in0.0 mm 0.00 in0.0 mm
01:35 PM 62.6°F17.0°C 50.2°F10.1°C 64% 5.8 mph SSW9.3 kmh SSW 6.9 mph11.1 kmh 31.80 in1076.9 mb - 0.00 in0.0 mm 0.00 in0.0 mm
01:40 PM 62.1°F16.7°C 49.8°F9.9°C 64% 6.9 mph SW11.1 kmh SW 8.1 mph13.0 kmh 31.80 in1076.9 mb - 0.00 in0.0 mm 0.00 in0.0 mm
01:45 PM 62.3°F16.8°C 49.1°F9.5°C 62% 5.8 mph SW9.3 kmh SW 8.1 mph13.0 kmh 31.80 in1076.9 mb - 0.00 in0.0 mm 0.00 in0.0 mm
01:50 PM 62.3°F16.8°C 50.0°F10.0°C 64% 6.9 mph S11.1 kmh S 9.2 mph14.8 kmh 31.80 in1076.9 mb - 0.00 in0.0 mm 0.00 in0.0 mm
01:55 PM 62.3°F16.8°C 49.9°F9.9°C 64% 8.1 mph SW13.0 kmh SW 8.1 mph13.0 kmh 31.80 in1076.9 mb - 0.00 in0.0 mm 0.00 in0.0 mm
02:00 PM 62.2°F16.8°C 49.8°F9.9°C 64% 6.9 mph SW11.1 kmh SW 5.8 mph9.3 kmh 31.80 in1076.9 mb - 0.00 in0.0 mm 0.00 in0.0 mm
02:10 PM 62.1°F16.7°C 49.8°F9.9°C 64% 6.9 mph SSW11.1 kmh SSW 9.2 mph14.8 kmh 31.80 in1076.9 mb - 0.00 in0.0 mm 0.00 in0.0 mm
02:15 PM 62.9°F17.2°C 51.0°F10.6°C 65% 5.8 mph SW9.3 kmh SW 6.9 mph11.1 kmh 31.80 in1076.9 mb - 0.00 in0.0 mm 0.00 in0.0 mm
02:20 PM 62.4°F16.9°C 49.7°F9.8°C 63% 6.9 mph SW11.1 kmh SW 8.1 mph13.0 kmh 31.80 in1076.9 mb - 0.00 in0.0 mm 0.00 in0.0 mm
02:25 PM 62.8°F17.1°C 50.0°F10.0°C 63% 5.8 mph SW9.3 kmh SW 5.8 mph9.3 kmh 31.80 in1076.9 mb - 0.00 in0.0 mm 0.00 in0.0 mm
02:30 PM 62.4°F16.9°C 50.0°F10.0°C 64% 5.8 mph SW9.3 kmh SW 6.9 mph11.1 kmh 31.80 in1076.9 mb - 0.00 in0.0 mm 0.00 in0.0 mm
02:35 PM 62.8°F17.1°C 50.0°F10.0°C 63% 5.8 mph SSW9.3 kmh SSW 5.8 mph9.3 kmh 31.80 in1076.9 mb - 0.00 in0.0 mm 0.00 in0.0 mm
02:40 PM 63.0°F17.2°C 50.2°F10.1°C 63% 5.8 mph SW9.3 kmh SW 6.9 mph11.1 kmh 31.80 in1076.9 mb - 0.00 in0.0 mm 0.00 in0.0 mm
02:45 PM 63.1°F17.3°C 49.0°F9.4°C 60% 6.9 mph SW11.1 kmh SW 6.9 mph11.1 kmh 31.80 in1076.9 mb - 0.00 in0.0 mm 0.00 in0.0 mm
02:50 PM 62.8°F17.1°C 50.4°F10.2°C 64% 5.8 mph SW9.3 kmh SW 6.9 mph11.1 kmh 31.80 in1076.9 mb - 0.00 in0.0 mm 0.00 in0.0 mm
02:55 PM 62.5°F16.9°C 50.1°F10.1°C 64% 5.8 mph SSW9.3 kmh SSW 9.2 mph14.8 kmh 31.80 in1076.9 mb - 0.00 in0.0 mm 0.00 in0.0 mm
03:00 PM 63.1°F17.3°C 50.7°F10.4°C 64% 5.8 mph SW9.3 kmh SW 5.8 mph9.3 kmh 31.80 in1076.9 mb - 0.00 in0.0 mm 0.00 in0.0 mm
03:10 PM 62.2°F16.8°C 49.9°F9.9°C 64% 4.6 mph SW7.4 kmh SW 6.9 mph11.1 kmh 31.80 in1076.9 mb - 0.00 in0.0 mm 0.00 in0.0 mm
03:15 PM 62.2°F16.8°C 49.8°F9.9°C 64% 5.8 mph SW9.3 kmh SW 5.8 mph9.3 kmh 31.80 in1076.9 mb - 0.00 in0.0 mm 0.00 in0.0 mm
03:20 PM 61.9°F16.6°C 48.8°F9.3°C 62% 5.8 mph SW9.3 kmh SW 5.8 mph9.3 kmh 31.80 in1076.9 mb - 0.00 in0.0 mm 0.00 in0.0 mm
03:25 PM 62.5°F16.9°C 49.3°F9.6°C 62% 4.6 mph SSW7.4 kmh SSW 4.6 mph7.4 kmh 31.80 in1076.9 mb - 0.00 in0.0 mm 0.00 in0.0 mm
03:30 PM 63.4°F17.4°C 50.1°F10.1°C 62% 5.8 mph WSW9.3 kmh WSW 8.1 mph13.0 kmh 31.80 in1076.9 mb - 0.00 in0.0 mm 0.00 in0.0 mm
03:35 PM 63.4°F17.4°C 49.7°F9.8°C 61% 4.6 mph SW7.4 kmh SW 6.9 mph11.1 kmh 31.80 in1076.9 mb - 0.00 in0.0 mm 0.00 in0.0 mm
03:40 PM 64.2°F17.9°C 50.4°F10.2°C 61% 4.6 mph S7.4 kmh S 5.8 mph9.3 kmh 31.80 in1076.9 mb - 0.00 in0.0 mm 0.00 in0.0 mm
03:45 PM 62.5°F16.9°C 49.7°F9.8°C 63% 5.8 mph SSW9.3 kmh SSW 8.1 mph13.0 kmh 31.80 in1076.9 mb - 0.00 in0.0 mm 0.00 in0.0 mm
03:50 PM 62.8°F17.1°C 50.0°F10.0°C 63% 5.8 mph S9.3 kmh S 5.8 mph9.3 kmh 31.80 in1076.9 mb - 0.00 in0.0 mm 0.00 in0.0 mm
03:55 PM 63.0°F17.2°C 50.2°F10.1°C 63% 5.8 mph SW9.3 kmh SW 6.9 mph11.1 kmh 31.80 in1076.9 mb - 0.00 in0.0 mm 0.00 in0.0 mm
04:00 PM 63.4°F17.4°C 49.7°F9.8°C 61% 4.6 mph SW7.4 kmh SW 5.8 mph9.3 kmh 31.80 in1076.9 mb - 0.00 in0.0 mm 0.00 in0.0 mm
04:10 PM 64.4°F18.0°C 50.2°F10.1°C 60% 5.8 mph SSW9.3 kmh SSW 8.1 mph13.0 kmh 31.80 in1076.9 mb - 0.00 in0.0 mm 0.00 in0.0 mm
04:15 PM 64.1°F17.8°C 50.4°F10.2°C 61% 5.8 mph SW9.3 kmh SW 5.8 mph9.3 kmh 31.80 in1076.9 mb - 0.00 in0.0 mm 0.00 in0.0 mm
04:20 PM 63.1°F17.3°C 49.9°F9.9°C 62% 5.8 mph SW9.3 kmh SW 5.8 mph9.3 kmh 31.80 in1076.9 mb - 0.00 in0.0 mm 0.00 in0.0 mm
04:25 PM 63.2°F17.3°C 50.0°F10.0°C 62% 5.8 mph SSW9.3 kmh SSW 5.8 mph9.3 kmh 31.80 in1076.9 mb - 0.00 in0.0 mm 0.00 in0.0 mm
04:30 PM 63.3°F17.4°C 50.1°F10.1°C 62% 5.8 mph S9.3 kmh S 5.8 mph9.3 kmh 31.80 in1076.9 mb - 0.00 in0.0 mm 0.00 in0.0 mm
04:35 PM 61.8°F16.6°C 49.1°F9.5°C 63% 5.8 mph SSW9.3 kmh SSW 5.8 mph9.3 kmh 31.80 in1076.9 mb - 0.00 in0.0 mm 0.00 in0.0 mm
04:40 PM 63.6°F17.6°C 50.3°F10.2°C 62% 5.8 mph SSW9.3 kmh SSW 5.8 mph9.3 kmh 31.80 in1076.9 mb - 0.00 in0.0 mm 0.00 in0.0 mm
04:45 PM 63.6°F17.6°C 50.3°F10.2°C 62% 5.8 mph SW9.3 kmh SW 5.8 mph9.3 kmh 31.80 in1076.9 mb - 0.00 in0.0 mm 0.00 in0.0 mm
04:50 PM 61.8°F16.6°C 49.1°F9.5°C 63% 5.8 mph SSW9.3 kmh SSW 8.1 mph13.0 kmh 31.80 in1076.9 mb - 0.00 in0.0 mm 0.00 in0.0 mm
04:55 PM 61.2°F16.2°C 48.9°F9.4°C 64% 4.6 mph SSW7.4 kmh SSW 5.8 mph9.3 kmh 31.80 in1076.9 mb - 0.00 in0.0 mm 0.00 in0.0 mm
05:00 PM 59.2°F15.1°C 48.3°F9.1°C 67% 4.6 mph SW7.4 kmh SW 4.6 mph7.4 kmh 31.80 in1076.9 mb - 0.00 in0.0 mm 0.00 in0.0 mm
05:10 PM 61.5°F16.4°C 49.6°F9.8°C 65% 5.8 mph SSW9.3 kmh SSW 6.9 mph11.1 kmh 31.80 in1076.9 mb - 0.00 in0.0 mm 0.00 in0.0 mm
05:15 PM 61.7°F16.5°C 49.8°F9.9°C 65% 3.5 mph SSW5.6 kmh SSW 4.6 mph7.4 kmh 31.80 in1076.9 mb - 0.00 in0.0 mm 0.00 in0.0 mm
05:20 PM 61.0°F16.1°C 49.1°F9.5°C 65% 3.5 mph S5.6 kmh S 5.8 mph9.3 kmh 31.80 in1076.9 mb - 0.00 in0.0 mm 0.00 in0.0 mm
05:25 PM 62.1°F16.7°C 49.8°F9.9°C 64% 3.5 mph SSW5.6 kmh SSW 4.6 mph7.4 kmh 31.80 in1076.9 mb - 0.00 in0.0 mm 0.00 in0.0 mm
05:30 PM 59.6°F15.3°C 49.0°F9.4°C 68% 4.6 mph SSW7.4 kmh SSW 4.6 mph7.4 kmh 31.80 in1076.9 mb - 0.00 in0.0 mm 0.00 in0.0 mm
05:35 PM 60.8°F16.0°C 49.3°F9.6°C 66% 3.5 mph SSW5.6 kmh SSW 4.6 mph7.4 kmh 31.80 in1076.9 mb - 0.00 in0.0 mm 0.00 in0.0 mm
05:40 PM 58.7°F14.8°C 48.6°F9.2°C 69% 3.5 mph SW5.6 kmh SW 4.6 mph7.4 kmh 31.80 in1076.9 mb - 0.00 in0.0 mm 0.00 in0.0 mm
05:45 PM 59.8°F15.4°C 48.8°F9.3°C 67% 3.5 mph SW5.6 kmh SW 4.6 mph7.4 kmh 31.80 in1076.9 mb - 0.00 in0.0 mm 0.00 in0.0 mm
05:50 PM 59.7°F15.4°C 49.1°F9.5°C 68% 3.5 mph SW5.6 kmh SW 4.6 mph7.4 kmh 31.80 in1076.9 mb - 0.00 in0.0 mm 0.00 in0.0 mm
05:55 PM 58.5°F14.7°C 49.2°F9.6°C 71% 2.3 mph SSW3.7 kmh SSW 2.3 mph3.7 kmh 31.80 in1076.9 mb - 0.00 in0.0 mm 0.00 in0.0 mm
06:00 PM 59.3°F15.2°C 48.7°F9.3°C 68% 3.5 mph SSW5.6 kmh SSW 3.5 mph5.6 kmh 31.80 in1076.9 mb - 0.00 in0.0 mm 0.00 in0.0 mm
06:10 PM 57.7°F14.3°C 47.6°F8.7°C 69% 2.3 mph S3.7 kmh S 2.3 mph3.7 kmh 31.80 in1076.9 mb - 0.00 in0.0 mm 0.00 in0.0 mm
06:15 PM 58.1°F14.5°C 47.6°F8.7°C 68% Calm Calm -- 31.80 in1076.9 mb - 0.00 in0.0 mm 0.00 in0.0 mm
06:20 PM 57.6°F14.2°C 47.5°F8.6°C 69% Calm Calm -- 31.80 in1076.9 mb - 0.00 in0.0 mm 0.00 in0.0 mm
06:25 PM 56.7°F13.7°C 46.7°F8.2°C 69% Calm Calm -- 31.80 in1076.9 mb - 0.00 in0.0 mm 0.00 in0.0 mm
06:30 PM 55.8°F13.2°C 47.3°F8.5°C 73% Calm Calm -- 31.80 in1076.9 mb - 0.00 in0.0 mm 0.00 in0.0 mm
06:35 PM 54.7°F12.6°C 46.9°F8.3°C 75% Calm Calm -- 31.80 in1076.9 mb - 0.00 in0.0 mm 0.00 in0.0 mm
06:40 PM 53.6°F12.0°C 47.2°F8.4°C 79% 2.3 mph NW3.7 kmh NW 2.3 mph3.7 kmh 31.80 in1076.9 mb - 0.00 in0.0 mm 0.00 in0.0 mm
06:45 PM 52.4°F11.3°C 47.4°F8.6°C 83% 2.3 mph NW3.7 kmh NW 2.3 mph3.7 kmh 31.80 in1076.9 mb - 0.00 in0.0 mm 0.00 in0.0 mm
06:50 PM 51.8°F11.0°C 47.1°F8.4°C 84% 1.2 mph N1.9 kmh N 1.2 mph1.9 kmh 31.80 in1076.9 mb - 0.00 in0.0 mm 0.00 in0.0 mm
06:55 PM 51.5°F10.8°C 46.8°F8.2°C 84% Calm Calm -- 31.80 in1076.9 mb - 0.00 in0.0 mm 0.00 in0.0 mm
07:00 PM 50.9°F10.5°C 46.5°F8.1°C 85% Calm Calm -- 31.80 in1076.9 mb - 0.00 in0.0 mm 0.00 in0.0 mm
07:10 PM 49.7°F9.8°C 46.6°F8.1°C 89% 1.2 mph ESE1.9 kmh ESE 1.2 mph1.9 kmh 31.80 in1076.9 mb - 0.00 in0.0 mm 0.00 in0.0 mm
07:15 PM 48.9°F9.4°C 46.4°F8.0°C 91% 1.2 mph N1.9 kmh N 2.3 mph3.7 kmh 31.80 in1076.9 mb - 0.00 in0.0 mm 0.00 in0.0 mm
07:20 PM 48.5°F9.2°C 46.6°F8.1°C 93% 2.3 mph N3.7 kmh N 2.3 mph3.7 kmh 31.80 in1076.9 mb - 0.00 in0.0 mm 0.00 in0.0 mm
07:25 PM 48.2°F9.0°C 46.3°F7.9°C 93% 1.2 mph E1.9 kmh E 1.2 mph1.9 kmh 31.80 in1076.9 mb - 0.00 in0.0 mm 0.00 in0.0 mm
07:30 PM 47.9°F8.8°C 46.0°F7.8°C 93% 2.3 mph WNW3.7 kmh WNW 2.3 mph3.7 kmh 31.80 in1076.9 mb - 0.00 in0.0 mm 0.00 in0.0 mm
07:35 PM 47.7°F8.7°C 46.3°F7.9°C 95% 3.5 mph NNW5.6 kmh NNW 3.5 mph5.6 kmh 31.80 in1076.9 mb - 0.00 in0.0 mm 0.00 in0.0 mm
07:40 PM 47.6°F8.7°C 46.3°F7.9°C 95% 2.3 mph NNE3.7 kmh NNE 3.5 mph5.6 kmh 31.80 in1076.9 mb - 0.00 in0.0 mm 0.00 in0.0 mm
07:45 PM 47.5°F8.6°C 46.4°F8.0°C 96% 2.3 mph NNE3.7 kmh NNE 2.3 mph3.7 kmh 31.80 in1076.9 mb - 0.00 in0.0 mm 0.00 in0.0 mm
07:50 PM 47.1°F8.4°C 46.0°F7.8°C 96% 1.2 mph N1.9 kmh N 1.2 mph1.9 kmh 31.80 in1076.9 mb - 0.00 in0.0 mm 0.00 in0.0 mm
07:55 PM 46.9°F8.3°C 45.8°F7.7°C 96% 1.2 mph N1.9 kmh N 2.3 mph3.7 kmh 31.80 in1076.9 mb - 0.00 in0.0 mm 0.00 in0.0 mm
08:00 PM 46.8°F8.2°C 45.7°F7.6°C 96% 2.3 mph NNW3.7 kmh NNW 2.3 mph3.7 kmh 31.80 in1076.9 mb - 0.00 in0.0 mm 0.00 in0.0 mm
08:10 PM 46.4°F8.0°C 45.6°F7.6°C 97% 1.2 mph NE1.9 kmh NE 2.3 mph3.7 kmh 31.80 in1076.9 mb - 0.00 in0.0 mm 0.00 in0.0 mm
08:15 PM 46.1°F7.8°C 45.3°F7.4°C 97% 2.3 mph NNW3.7 kmh NNW 2.3 mph3.7 kmh 31.80 in1076.9 mb - 0.00 in0.0 mm 0.00 in0.0 mm
08:20 PM 46.1°F7.8°C 45.5°F7.5°C 98% 1.2 mph NW1.9 kmh NW 2.3 mph3.7 kmh 31.80 in1076.9 mb - 0.00 in0.0 mm 0.00 in0.0 mm
08:25 PM 46.1°F7.8°C 45.5°F7.5°C 98% 2.3 mph NNW3.7 kmh NNW 2.3 mph3.7 kmh 31.80 in1076.9 mb - 0.00 in0.0 mm 0.00 in0.0 mm
08:30 PM 46.1°F7.8°C 45.5°F7.5°C 98% Calm Calm -- 31.80 in1076.9 mb - 0.00 in0.0 mm 0.00 in0.0 mm
08:35 PM 45.7°F7.6°C 45.1°F7.3°C 98% 1.2 mph NE1.9 kmh NE 1.2 mph1.9 kmh 31.80 in1076.9 mb - 0.00 in0.0 mm 0.00 in0.0 mm
08:40 PM 45.8°F7.7°C 45.2°F7.3°C 98% 1.2 mph N1.9 kmh N 2.3 mph3.7 kmh 31.80 in1076.9 mb - 0.00 in0.0 mm 0.00 in0.0 mm
08:45 PM 45.7°F7.6°C 45.2°F7.3°C 98% 1.2 mph W1.9 kmh W 2.3 mph3.7 kmh 31.80 in1076.9 mb - 0.00 in0.0 mm 0.00 in0.0 mm
08:50 PM 47.7°F8.7°C 46.9°F8.3°C 97% 4.6 mph S7.4 kmh S 6.9 mph11.1 kmh 31.80 in1076.9 mb - 0.00 in0.0 mm 0.00 in0.0 mm
08:55 PM 51.7°F10.9°C 48.5°F9.2°C 89% 4.6 mph S7.4 kmh S 6.9 mph11.1 kmh 31.80 in1076.9 mb - 0.00 in0.0 mm 0.00 in0.0 mm
09:00 PM 53.2°F11.8°C 49.4°F9.7°C 87% 3.5 mph SSE5.6 kmh SSE 4.6 mph7.4 kmh 31.80 in1076.9 mb - 0.00 in0.0 mm 0.00 in0.0 mm
09:10 PM 54.9°F12.7°C 49.2°F9.6°C 81% 5.8 mph SE9.3 kmh SE 6.9 mph11.1 kmh 31.80 in1076.9 mb - 0.00 in0.0 mm 0.00 in0.0 mm
09:15 PM 55.1°F12.8°C 49.1°F9.5°C 80% 5.8 mph S9.3 kmh S 6.9 mph11.1 kmh 31.80 in1076.9 mb - 0.00 in0.0 mm 0.00 in0.0 mm
09:20 PM 55.2°F12.9°C 49.5°F9.7°C 81% 4.6 mph SSE7.4 kmh SSE 6.9 mph11.1 kmh 31.80 in1076.9 mb - 0.00 in0.0 mm 0.00 in0.0 mm
09:25 PM 55.2°F12.9°C 49.8°F9.9°C 82% 5.8 mph S9.3 kmh S 5.8 mph9.3 kmh 31.80 in1076.9 mb - 0.00 in0.0 mm 0.00 in0.0 mm
09:30 PM 55.4°F13.0°C 50.3°F10.2°C 83% 4.6 mph SSE7.4 kmh SSE 5.8 mph9.3 kmh 31.80 in1076.9 mb - 0.00 in0.0 mm 0.00 in0.0 mm
09:35 PM 55.4°F13.0°C 50.0°F10.0°C 82% 4.6 mph S7.4 kmh S 5.8 mph9.3 kmh 31.80 in1076.9 mb - 0.00 in0.0 mm 0.00 in0.0 mm
09:40 PM 55.6°F13.1°C 50.2°F10.1°C 82% 6.9 mph S11.1 kmh S 6.9 mph11.1 kmh 31.80 in1076.9 mb - 0.00 in0.0 mm 0.00 in0.0 mm
09:45 PM 55.8°F13.2°C 50.4°F10.2°C 82% 5.8 mph SSE9.3 kmh SSE 5.8 mph9.3 kmh 31.80 in1076.9 mb - 0.00 in0.0 mm 0.00 in0.0 mm
09:50 PM 55.8°F13.2°C 50.0°F10.0°C 81% 6.9 mph S11.1 kmh S 6.9 mph11.1 kmh 31.80 in1076.9 mb - 0.00 in0.0 mm 0.00 in0.0 mm
09:55 PM 56.1°F13.4°C 50.7°F10.4°C 82% 4.6 mph S7.4 kmh S 6.9 mph11.1 kmh 31.80 in1076.9 mb - 0.00 in0.0 mm 0.00 in0.0 mm
10:00 PM 56.1°F13.4°C 51.0°F10.6°C 83% 5.8 mph SW9.3 kmh SW 5.8 mph9.3 kmh 31.80 in1076.9 mb - 0.00 in0.0 mm 0.00 in0.0 mm
10:10 PM 56.5°F13.6°C 51.1°F10.6°C 82% 8.1 mph S13.0 kmh S 8.1 mph13.0 kmh 31.80 in1076.9 mb - 0.00 in0.0 mm 0.00 in0.0 mm
10:15 PM 56.7°F13.7°C 51.2°F10.7°C 82% 4.6 mph S7.4 kmh S 6.9 mph11.1 kmh 31.80 in1076.9 mb - 0.00 in0.0 mm 0.00 in0.0 mm
10:20 PM 56.7°F13.7°C 51.6°F10.9°C 83% 6.9 mph S11.1 kmh S 9.2 mph14.8 kmh 31.80 in1076.9 mb - 0.00 in0.0 mm 0.00 in0.0 mm
10:25 PM 56.7°F13.7°C 51.2°F10.7°C 82% 6.9 mph SSE11.1 kmh SSE 8.1 mph13.0 kmh 31.80 in1076.9 mb - 0.00 in0.0 mm 0.00 in0.0 mm
10:30 PM 56.9°F13.8°C 52.1°F11.2°C 84% 4.6 mph SSE7.4 kmh SSE 4.6 mph7.4 kmh 31.80 in1076.9 mb - 0.00 in0.0 mm 0.00 in0.0 mm
10:35 PM 56.9°F13.8°C 51.4°F10.8°C 82% 4.6 mph S7.4 kmh S 5.8 mph9.3 kmh 31.80 in1076.9 mb - 0.00 in0.0 mm 0.00 in0.0 mm
10:40 PM 56.9°F13.8°C 51.5°F10.8°C 82% 5.8 mph SW9.3 kmh SW 6.9 mph11.1 kmh 31.80 in1076.9 mb - 0.00 in0.0 mm 0.00 in0.0 mm
10:45 PM 57.1°F13.9°C 51.6°F10.9°C 82% 5.8 mph SSW9.3 kmh SSW 6.9 mph11.1 kmh 31.80 in1076.9 mb - 0.00 in0.0 mm 0.00 in0.0 mm
10:50 PM 57.4°F14.1°C 51.3°F10.7°C 80% 5.8 mph SE9.3 kmh SE 6.9 mph11.1 kmh 31.80 in1076.9 mb - 0.00 in0.0 mm 0.00 in0.0 mm
10:55 PM 57.8°F14.3°C 51.6°F10.9°C 80% 8.1 mph S13.0 kmh S 10.4 mph16.7 kmh 31.80 in1076.9 mb - 0.00 in0.0 mm 0.00 in0.0 mm
11:00 PM 58.1°F14.5°C 50.9°F10.5°C 77% 9.2 mph SE14.8 kmh SE 11.5 mph18.5 kmh 31.80 in1076.9 mb - 0.00 in0.0 mm 0.00 in0.0 mm
11:10 PM 58.5°F14.7°C 50.6°F10.3°C 75% 12.7 mph S20.4 kmh S 15.0 mph24.1 kmh 31.80 in1076.9 mb - 0.00 in0.0 mm 0.00 in0.0 mm
11:15 PM 58.5°F14.7°C 50.9°F10.5°C 76% 13.8 mph SSW22.2 kmh SSW 13.8 mph22.2 kmh 31.80 in1076.9 mb - 0.00 in0.0 mm 0.00 in0.0 mm
11:20 PM 58.3°F14.6°C 51.8°F11.0°C 79% 10.4 mph SSW16.7 kmh SSW 11.5 mph18.5 kmh 31.80 in1076.9 mb - 0.00 in0.0 mm 0.00 in0.0 mm
11:25 PM 58.3°F14.6°C 51.8°F11.0°C 79% 10.4 mph SW16.7 kmh SW 13.8 mph22.2 kmh 31.80 in1076.9 mb - 0.00 in0.0 mm 0.00 in0.0 mm
11:30 PM 58.3°F14.6°C 51.8°F11.0°C 79% 13.8 mph SW22.2 kmh SW 13.8 mph22.2 kmh 31.80 in1076.9 mb - 0.00 in0.0 mm 0.00 in0.0 mm
11:35 PM 58.1°F14.5°C 52.3°F11.3°C 81% 12.7 mph S20.4 kmh S 13.8 mph22.2 kmh 31.80 in1076.9 mb - 0.00 in0.0 mm 0.00 in0.0 mm
11:40 PM 58.1°F14.5°C 52.3°F11.3°C 81% 13.8 mph S22.2 kmh S 15.0 mph24.1 kmh 31.80 in1076.9 mb - 0.00 in0.0 mm 0.00 in0.0 mm
11:45 PM 58.3°F14.6°C 52.5°F11.4°C 81% 9.2 mph SSW14.8 kmh SSW 12.7 mph20.4 kmh 31.80 in1076.9 mb - 0.00 in0.0 mm 0.00 in0.0 mm
11:50 PM 58.3°F14.6°C 52.1°F11.2°C 80% 11.5 mph SW18.5 kmh SW 12.7 mph20.4 kmh 31.80 in1076.9 mb - 0.00 in0.0 mm 0.00 in0.0 mm
11:55 PM 58.3°F14.6°C 52.1°F11.2°C 80% 10.4 mph SSW16.7 kmh SSW 10.4 mph16.7 kmh 31.80 in1076.9 mb - 0.00 in0.0 mm 0.00 in0.0 mm